Time;durP1;ratioP1;P1;durP2;ratioP2;P2;SDS_P1;SDS_P2;PMS_P1;PMS_P2;Temp;Humidity;BMP_temperature;BMP_pressure;BME280_temperature;BME280_humidity;BME280_pressure;Samples;Min_cycle;Max_cycle;Signal;HPM_P1;HPM_P2
2022/03/18 00:01:43;;;;;;;6.78;5.38;;;;;;;16.41;32.55;94590.25;4903039;29;20508;-90
2022/03/18 00:04:09;;;;;;;9.85;6.38;;;;;;;16.40;32.43;94591.47;4899724;29;20044;-88
2022/03/18 00:06:34;;;;;;;7.65;6.03;;;;;;;16.39;32.48;94585.25;4899910;29;20055;-92
2022/03/18 00:09:00;;;;;;;6.32;5.05;;;;;;;16.40;32.31;94597.66;4905630;29;20051;-88
2022/03/18 00:11:25;;;;;;;7.25;5.50;;;;;;;16.41;32.37;94587.50;4902897;29;20040;-88
2022/03/18 00:13:50;;;;;;;6.63;5.47;;;;;;;16.41;32.41;94588.25;4921336;29;20407;-90
2022/03/18 00:16:16;;;;;;;7.72;5.28;;;;;;;16.39;32.37;94589.94;4908765;29;20031;-89
2022/03/18 00:18:41;;;;;;;7.53;4.88;;;;;;;16.39;32.53;94592.69;4906351;29;20434;-88
2022/03/18 00:21:07;;;;;;;6.85;5.22;;;;;;;16.39;32.30;94579.03;4904695;29;20047;-89
2022/03/18 00:23:32;;;;;;;6.95;5.45;;;;;;;16.37;32.56;94581.47;4902612;29;20048;-92
2022/03/18 00:25:58;;;;;;;5.13;4.43;;;;;;;16.38;32.48;94589.19;4901892;29;20040;-88
2022/03/18 00:28:23;;;;;;;6.90;5.40;;;;;;;16.40;32.07;94592.22;4901290;29;20029;-89
2022/03/18 00:30:49;;;;;;;8.98;5.40;;;;;;;16.38;32.72;94588.44;4903885;29;20039;-90
2022/03/18 00:33:15;;;;;;;7.03;4.85;;;;;;;16.38;32.50;94589.19;4903870;29;20123;-90
2022/03/18 00:35:40;;;;;;;7.32;4.88;;;;;;;16.37;32.49;94590.41;4903104;29;20039;-90
2022/03/18 00:38:06;;;;;;;6.72;4.97;;;;;;;16.39;32.49;94595.41;4886575;29;20439;-88
2022/03/18 00:40:31;;;;;;;7.40;4.95;;;;;;;16.39;32.55;94601.63;4897521;29;20044;-89
2022/03/18 00:43:00;;;;;;;5.97;4.95;;;;;;;16.37;32.21;94598.59;4883952;29;20055;-89
2022/03/18 00:45:25;;;;;;;6.40;4.53;;;;;;;16.37;32.13;94597.84;4901727;29;20648;-89
2022/03/18 00:53:19;;;;;;;5.30;4.65;;;;;;;16.35;32.43;94601.03;4888394;29;20119;-89
2022/03/18 00:55:44;;;;;;;5.38;4.78;;;;;;;16.35;32.38;94603.78;4882929;29;20055;-88
2022/03/18 00:58:09;;;;;;;7.13;4.72;;;;;;;16.35;32.85;94603.03;4898226;29;20340;-88
2022/03/18 01:00:35;;;;;;;6.45;5.18;;;;;;;16.36;32.42;94609.97;4892846;29;20047;-89
2022/03/18 01:03:00;;;;;;;6.57;5.00;;;;;;;16.35;32.53;94603.03;4901199;29;20040;-88
2022/03/18 01:05:26;;;;;;;5.38;4.10;;;;;;;16.34;32.44;94610.44;4916918;29;20051;-88
2022/03/18 01:07:51;;;;;;;5.20;4.40;;;;;;;16.34;32.51;94605.00;4918213;29;20036;-91
2022/03/18 01:10:16;;;;;;;7.15;5.25;;;;;;;16.34;32.52;94609.69;4901219;29;20035;-90
2022/03/18 01:12:42;;;;;;;8.80;4.88;;;;;;;16.33;32.54;94600.75;4933389;29;20736;-92
2022/03/18 01:15:08;;;;;;;6.13;4.63;;;;;;;16.34;32.33;94607.72;4918020;29;20039;-89
2022/03/18 01:17:33;;;;;;;6.53;4.82;;;;;;;16.34;32.73;94601.50;4918536;29;20043;-93
2022/03/18 01:19:59;;;;;;;5.68;4.25;;;;;;;16.33;32.73;94603.47;4918878;29;20582;-89
2022/03/18 01:22:25;;;;;;;5.20;4.30;;;;;;;16.33;32.89;94603.47;4900924;29;20152;-89
2022/03/18 01:24:50;;;;;;;5.43;4.40;;;;;;;16.33;32.75;94603.47;4901176;29;20056;-90
2022/03/18 01:27:16;;;;;;;6.13;4.75;;;;;;;16.32;32.78;94604.72;4900664;29;20055;-89
2022/03/18 01:29:41;;;;;;;7.00;4.53;;;;;;;16.33;32.70;94600.75;4900821;29;20048;-89
2022/03/18 01:32:07;;;;;;;6.32;4.93;;;;;;;16.33;32.60;94600.00;4900459;29;20046;-88
2022/03/18 01:34:33;;;;;;;5.80;4.20;;;;;;;16.32;32.31;94612.13;4885482;29;20044;-88
2022/03/18 01:36:59;;;;;;;5.70;4.57;;;;;;;16.32;32.57;94607.44;4902307;29;20388;-90
2022/03/18 01:39:24;;;;;;;6.70;4.85;;;;;;;16.33;32.40;94608.19;4901526;29;20047;-88
2022/03/18 01:41:51;;;;;;;5.88;4.20;;;;;;;16.34;32.73;94612.44;4913601;29;20040;-88
2022/03/18 01:44:17;;;;;;;6.30;4.50;;;;;;;16.33;32.56;94616.38;4916551;29;20399;-89
2022/03/18 01:46:42;;;;;;;8.63;4.18;;;;;;;16.32;32.47;94609.41;4885578;29;20045;-89
2022/03/18 01:49:08;;;;;;;6.45;4.20;;;;;;;16.32;32.65;94603.94;4882367;29;20381;-89
2022/03/18 01:51:33;;;;;;;5.82;4.20;;;;;;;16.31;32.92;94605.94;4882688;29;20055;-88
2022/03/18 01:56:44;;;;;;;5.50;4.20;;;;;;;16.31;32.42;94619.56;4887318;29;20086;-89
2022/03/18 01:59:12;;;;;;;6.10;4.45;;;;;;;16.31;32.51;94630.47;4881712;29;20040;-89
2022/03/18 02:01:38;;;;;;;5.35;4.10;;;;;;;16.30;32.64;94622.75;4865909;29;20687;-89
2022/03/18 02:04:03;;;;;;;5.65;4.22;;;;;;;16.30;32.93;94630.94;4882060;29;20036;-89
2022/03/18 02:06:32;;;;;;;5.10;4.20;;;;;;;16.31;32.60;94630.47;4897600;29;20047;-91
2022/03/18 02:08:57;;;;;;;5.30;4.40;;;;;;;16.29;32.66;94627.47;4882435;29;20035;-88
2022/03/18 02:11:23;;;;;;;4.70;4.07;;;;;;;16.30;32.71;94625.50;4881275;29;20040;-89
2022/03/18 02:13:50;;;;;;;4.95;4.10;;;;;;;16.32;32.70;94628.50;4882229;29;20076;-88
2022/03/18 02:16:15;;;;;;;6.78;4.22;;;;;;;16.31;32.83;94627.00;4882026;29;20184;-89
2022/03/18 02:18:41;;;;;;;5.85;4.50;;;;;;;16.28;32.82;94620.50;4898064;29;20416;-90
2022/03/18 02:21:08;;;;;;;5.35;4.25;;;;;;;16.29;32.79;94630.19;4896625;29;20546;-89
2022/03/18 02:23:34;;;;;;;6.90;4.80;;;;;;;16.30;32.78;94630.94;4914364;29;20074;-89
2022/03/18 02:25:59;;;;;;;5.63;4.35;;;;;;;16.29;32.74;94637.63;4915884;29;20031;-88
2022/03/18 02:28:24;;;;;;;5.10;4.13;;;;;;;16.30;32.63;94634.44;4899896;29;20109;-88
2022/03/18 02:30:50;;;;;;;5.90;4.70;;;;;;;16.30;33.29;94631.69;4900480;29;20044;-89
2022/03/18 02:33:16;;;;;;;6.47;4.05;;;;;;;16.29;32.98;94626.72;4896519;29;20040;-89
2022/03/18 02:35:42;;;;;;;5.28;4.10;;;;;;;16.29;33.00;94632.94;4898327;29;20040;-89
2022/03/18 02:38:07;;;;;;;6.50;4.57;;;;;;;16.29;32.75;94637.63;4881766;29;20095;-88
2022/03/18 02:40:33;;;;;;;6.05;3.97;;;;;;;16.28;32.75;94630.66;4884004;29;20052;-92
2022/03/18 02:42:58;;;;;;;5.13;4.35;;;;;;;16.27;32.82;94634.59;4905405;29;20040;-91
2022/03/18 02:45:24;;;;;;;5.97;4.20;;;;;;;16.28;32.65;94639.59;4907114;29;20036;-88
2022/03/18 02:47:49;;;;;;;5.25;4.32;;;;;;;16.28;32.68;94639.59;4865743;29;20056;-89
2022/03/18 02:50:17;;;;;;;5.15;4.30;;;;;;;16.29;32.68;94641.09;4912774;29;20055;-89
2022/03/18 02:52:43;;;;;;;5.13;4.28;;;;;;;16.26;32.79;94636.59;4880342;29;20107;-89
2022/03/18 02:55:09;;;;;;;5.72;4.63;;;;;;;16.27;32.88;94645.53;4895774;29;20052;-91
2022/03/18 02:57:34;;;;;;;5.72;4.22;;;;;;;16.27;32.92;94640.06;4895417;29;20052;-92
2022/03/18 03:00:00;;;;;;;5.55;4.25;;;;;;;16.26;32.79;94650.22;4881317;29;20037;-90
2022/03/18 03:02:25;;;;;;;6.32;4.53;;;;;;;16.27;32.92;94640.06;4892616;29;20044;-88
2022/03/18 03:10:19;;;;;;;4.15;3.47;;;;;;;16.26;32.59;94646.75;4877450;29;20047;-88
2022/03/18 03:12:45;;;;;;;8.45;4.38;;;;;;;16.28;32.78;94655.22;4875445;29;20040;-88
2022/03/18 03:15:10;;;;;;;5.90;4.45;;;;;;;16.27;32.98;94654.47;4899498;29;20109;-90
2022/03/18 03:17:36;;;;;;;5.05;3.88;;;;;;;16.27;32.85;94661.91;4899374;29;20040;-89
2022/03/18 03:20:02;;;;;;;5.78;4.68;;;;;;;16.24;32.77;94660.84;4860712;29;20423;-88
2022/03/18 03:22:29;;;;;;;6.93;4.15;;;;;;;16.25;32.80;94656.91;4860190;29;20044;-89
2022/03/18 03:24:55;;;;;;;5.75;4.00;;;;;;;16.27;32.91;94662.66;4857081;29;20043;-92
2022/03/18 03:27:21;;;;;;;6.25;3.92;;;;;;;16.25;32.76;94673.28;4844275;29;20059;-88
2022/03/18 03:29:46;;;;;;;5.45;4.00;;;;;;;16.25;32.83;94669.78;4860920;29;20036;-88
2022/03/18 03:32:11;;;;;;;6.60;4.53;;;;;;;16.25;32.49;94675.25;4860526;29;20504;-89
2022/03/18 03:34:37;;;;;;;5.55;4.03;;;;;;;16.26;33.01;94679.47;4860189;29;20055;-89
2022/03/18 03:37:02;;;;;;;5.25;4.20;;;;;;;16.24;32.75;94677.22;4844231;29;20052;-89
2022/03/18 03:39:28;;;;;;;5.07;3.65;;;;;;;16.23;32.74;94683.91;4847180;29;20197;-89
2022/03/18 03:41:53;;;;;;;5.80;4.35;;;;;;;16.24;33.03;94685.41;4875529;29;20045;-89
2022/03/18 03:44:18;;;;;;;5.38;4.13;;;;;;;16.25;33.03;94686.16;4848663;29;20085;-89
2022/03/18 03:46:44;;;;;;;5.05;4.07;;;;;;;16.25;32.71;94692.38;4839630;29;20380;-88
2022/03/18 03:49:09;;;;;;;5.43;4.20;;;;;;;16.24;32.70;94688.13;4856883;29;20037;-89
2022/03/18 03:51:35;;;;;;;5.38;3.95;;;;;;;16.26;33.05;94690.41;4885438;29;20048;-89
2022/03/18 03:54:00;;;;;;;5.00;3.97;;;;;;;16.24;32.81;94696.31;4895909;29;20123;-90
2022/03/18 03:56:26;;;;;;;5.00;4.00;;;;;;;16.25;32.79;94703.28;4879628;29;20036;-92
2022/03/18 03:58:51;;;;;;;6.60;4.40;;;;;;;16.23;32.90;94703.03;4884097;29;20055;-89
2022/03/18 04:01:16;;;;;;;6.95;4.57;;;;;;;16.23;32.95;94710.44;4884218;29;20044;-88
2022/03/18 04:03:42;;;;;;;4.95;3.53;;;;;;;16.23;33.00;94711.19;4884332;29;20051;-88
2022/03/18 04:06:07;;;;;;;6.20;4.00;;;;;;;16.22;32.95;94717.88;4901392;29;20055;-89
2022/03/18 04:08:33;;;;;;;5.00;3.70;;;;;;;16.23;32.58;94722.13;4886369;29;20050;-88
2022/03/18 04:10:58;;;;;;;5.28;4.40;;;;;;;16.24;32.80;94712.69;4918094;29;20070;-88
2022/03/18 04:13:24;;;;;;;5.70;4.38;;;;;;;16.23;33.06;94724.84;4917386;29;20036;-89
2022/03/18 04:15:50;;;;;;;5.28;4.05;;;;;;;16.21;33.11;94726.53;4904748;29;20562;-88
2022/03/18 04:18:15;;;;;;;5.90;4.32;;;;;;;16.19;32.96;94727.00;4920405;29;20035;-89
2022/03/18 04:20:41;;;;;;;5.50;3.90;;;;;;;16.24;32.55;94736.50;4921136;29;20058;-89
2022/03/18 04:23:06;;;;;;;6.07;4.28;;;;;;;16.22;32.88;94731.53;4920219;29;20035;-90
2022/03/18 04:25:32;;;;;;;5.40;3.83;;;;;;;16.22;32.91;94725.31;4904803;29;20048;-91
2022/03/18 04:27:58;;;;;;;5.20;4.03;;;;;;;16.21;32.70;94721.81;4867781;29;20739;-89
2022/03/18 04:30:24;;;;;;;5.43;4.60;;;;;;;16.21;32.98;94727.28;4882866;29;20043;-89
2022/03/18 04:32:49;;;;;;;5.00;3.63;;;;;;;16.24;32.88;94731.78;4883208;29;20070;-90
2022/03/18 04:35:14;;;;;;;6.20;4.22;;;;;;;16.23;32.85;94743.19;4888641;29;20499;-88
2022/03/18 04:37:40;;;;;;;5.07;3.92;;;;;;;16.23;33.06;94740.47;4886223;29;20040;-88
2022/03/18 04:40:09;;;;;;;5.28;4.00;;;;;;;16.21;32.79;94748.34;4892501;29;20468;-89
2022/03/18 04:42:35;;;;;;;6.68;3.97;;;;;;;16.20;32.96;94747.59;4901710;29;20031;-89
2022/03/18 04:45:00;;;;;;;6.63;4.43;;;;;;;16.20;32.96;94758.50;4898245;29;20036;-89
2022/03/18 04:47:27;;;;;;;5.53;4.20;;;;;;;16.22;32.88;94761.53;4901435;29;20495;-88
2022/03/18 04:49:53;;;;;;;5.00;3.80;;;;;;;16.23;33.04;94767.75;4917900;29;20485;-89
2022/03/18 04:52:18;;;;;;;4.93;3.90;;;;;;;16.19;32.78;94764.44;4900755;29;20039;-89
2022/03/18 04:54:44;;;;;;;5.45;4.13;;;;;;;16.22;32.74;94772.44;4900488;29;20491;-89
2022/03/18 04:57:21;;;;;;;5.63;4.07;;;;;;;16.20;32.92;94776.84;4897250;29;20048;-89
2022/03/18 04:59:47;;;;;;;4.90;3.90;;;;;;;16.20;32.81;94780.34;4901585;29;20183;-88
2022/03/18 05:02:14;;;;;;;4.45;3.95;;;;;;;16.22;32.80;94780.63;4897315;29;20123;-89
2022/03/18 05:04:39;;;;;;;5.68;4.07;;;;;;;16.20;32.99;94779.59;4898229;29;20047;-90
2022/03/18 05:07:05;;;;;;;6.00;4.05;;;;;;;16.19;33.11;94787.00;4880008;29;20405;-89
2022/03/18 05:09:31;;;;;;;5.75;4.95;;;;;;;16.17;32.78;94783.97;4862789;29;20068;-91
2022/03/18 05:11:56;;;;;;;6.22;4.18;;;;;;;16.19;33.22;94789.75;4879476;29;20040;-90
2022/03/18 05:14:21;;;;;;;5.03;4.20;;;;;;;16.20;32.95;94791.25;4878373;29;20396;-89
2022/03/18 05:16:47;;;;;;;5.13;3.92;;;;;;;16.19;32.97;94786.25;4879064;29;20040;-89
2022/03/18 05:19:12;;;;;;;5.30;4.03;;;;;;;16.20;32.81;94790.50;4877865;29;20056;-89
2022/03/18 05:21:39;;;;;;;4.43;3.55;;;;;;;16.20;33.15;94787.75;4878900;29;20400;-90
2022/03/18 05:24:06;;;;;;;5.60;4.15;;;;;;;16.19;33.18;94791.72;4863355;29;20045;-89
2022/03/18 05:26:32;;;;;;;5.35;4.20;;;;;;;16.19;33.37;94791.72;4894079;29;20068;-88
2022/03/18 05:28:57;;;;;;;5.35;4.57;;;;;;;16.20;32.94;94793.22;4898413;29;20044;-89
2022/03/18 05:31:24;;;;;;;4.63;3.80;;;;;;;16.18;33.17;94801.13;4897259;29;20495;-90
2022/03/18 05:33:49;;;;;;;5.28;4.55;;;;;;;16.20;33.15;94810.34;4897792;29;20137;-89
2022/03/18 05:36:15;;;;;;;5.28;3.88;;;;;;;16.22;33.17;94810.66;4893532;29;20045;-89
2022/03/18 05:38:40;;;;;;;4.88;4.05;;;;;;;16.22;33.01;94810.66;4878107;29;20033;-88
2022/03/18 05:41:07;;;;;;;5.75;3.70;;;;;;;16.22;33.41;94813.38;4893356;29;20421;-88
2022/03/18 05:43:32;;;;;;;4.95;3.85;;;;;;;16.21;33.04;94817.31;4883600;29;20100;-89
2022/03/18 05:45:58;;;;;;;5.13;3.38;;;;;;;16.18;33.08;94814.75;4896925;29;20040;-89
2022/03/18 05:48:23;;;;;;;5.10;4.13;;;;;;;16.23;32.90;94820.34;4881235;29;20340;-89
2022/03/18 05:50:49;;;;;;;5.57;3.53;;;;;;;16.20;33.00;94824.00;4899221;29;20048;-89
2022/03/18 05:53:14;;;;;;;5.15;3.97;;;;;;;16.20;32.83;94823.22;4896787;29;20028;-88
2022/03/18 05:58:25;;;;;;;43.42;31.98;;;;;;;16.24;33.04;94829.28;4909609;29;20125;-91
2022/03/18 06:00:51;;;;;;;7.47;4.80;;;;;;;16.25;32.83;94841.69;4898692;29;20086;-88
2022/03/18 06:03:17;;;;;;;9.55;5.18;;;;;;;16.26;32.95;94835.00;4899922;29;20060;-88
2022/03/18 06:05:42;;;;;;;12.73;5.85;;;;;;;16.22;33.13;94840.66;4896745;29;20401;-89
2022/03/18 06:13:38;;;;;;;18.25;8.18;;;;;;;16.11;32.61;94849.31;4897138;29;20586;-89
2022/03/18 06:16:04;;;;;;;23.98;14.95;;;;;;;16.09;32.68;94854.47;4914640;29;20123;-88
2022/03/18 06:18:29;;;;;;;15.10;9.00;;;;;;;16.14;32.65;94844.94;4881333;29;20091;-91
2022/03/18 06:20:55;;;;;;;16.77;8.85;;;;;;;16.14;33.08;94857.81;4893640;29;20045;-93
2022/03/18 06:23:20;;;;;;;20.17;8.50;;;;;;;16.19;32.97;94855.22;4863512;29;20465;-93
2022/03/18 06:25:46;;;;;;;12.52;8.13;;;;;;;16.18;33.00;94863.88;4880072;29;20051;-92
2022/03/18 06:28:13;;;;;;;28.77;15.57;;;;;;;16.17;32.81;94859.63;4880397;29;20036;-92
2022/03/18 06:30:38;;;;;;;17.38;12.15;;;;;;;16.20;32.97;94867.66;4883658;29;20056;-89
2022/03/18 06:33:04;;;;;;;19.65;12.43;;;;;;;16.24;32.90;94868.22;4897638;29;20044;-89
2022/03/18 06:35:29;;;;;;;20.52;10.63;;;;;;;16.22;32.88;94872.63;4878568;29;20515;-89
2022/03/18 06:37:55;;;;;;;20.50;11.05;;;;;;;16.24;32.93;94873.66;4869858;29;20530;-90
2022/03/18 06:40:20;;;;;;;27.05;9.23;;;;;;;16.22;32.54;94887.03;4910935;29;20040;-89
2022/03/18 06:42:46;;;;;;;32.72;14.10;;;;;;;16.03;31.78;94885.56;4914029;29;20070;-88
2022/03/18 06:45:11;;;;;;;23.98;14.23;;;;;;;16.09;31.56;94884.50;4901003;29;20404;-89
2022/03/18 06:47:36;;;;;;;24.90;15.32;;;;;;;16.10;31.65;94887.97;4884374;29;20502;-89
2022/03/18 06:50:02;;;;;;;226.68;53.65;;;;;;;16.07;31.48;94895.09;4911220;29;20044;-89
2022/03/18 06:52:27;;;;;;;461.08;99.68;;;;;;;16.10;31.91;94894.19;4912397;29;20052;-91
2022/03/18 06:54:53;;;;;;;409.00;92.55;;;;;;;16.13;31.68;94895.25;4895966;29;20052;-87
2022/03/18 06:57:19;;;;;;;489.65;103.10;;;;;;;16.11;31.53;94900.41;4914093;29;20582;-88
2022/03/18 06:59:45;;;;;;;470.88;99.53;;;;;;;16.15;31.69;94901.00;4896640;29;20048;-89
2022/03/18 07:02:10;;;;;;;318.83;68.75;;;;;;;16.17;32.43;94914.19;4864561;29;20044;-90
2022/03/18 07:04:37;;;;;;;255.27;57.40;;;;;;;16.15;32.21;94909.19;4917587;29;20046;-89
2022/03/18 07:07:03;;;;;;;240.82;49.45;;;;;;;16.17;32.58;94909.47;4917097;29;20521;-87
2022/03/18 07:09:28;;;;;;;204.73;44.45;;;;;;;16.18;32.56;94912.97;4918463;29;20039;-88
2022/03/18 07:11:54;;;;;;;180.98;35.47;;;;;;;16.17;32.62;94914.94;4918379;29;20522;-89
2022/03/18 07:14:19;;;;;;;242.38;51.72;;;;;;;16.20;32.83;94927.66;4901960;29;20518;-88
2022/03/18 07:19:28;;;;;;;70.15;26.23;;;;;;;16.00;31.33;94924.69;4902937;29;20067;-89
2022/03/18 07:21:54;;;;;;;91.18;33.55;;;;;;;15.85;31.45;94935.47;4896178;29;20488;-93
2022/03/18 07:24:19;;;;;;;355.83;74.82;;;;;;;15.81;31.36;94932.13;4882908;29;20033;-90
2022/03/18 07:26:45;;;;;;;355.83;81.47;;;;;;;15.86;31.46;94938.94;4898886;29;20047;-91
2022/03/18 07:29:12;;;;;;;369.65;83.15;;;;;;;15.92;31.58;94937.88;4879374;29;20044;-91
2022/03/18 07:31:37;;;;;;;390.08;105.43;;;;;;;15.94;31.57;94935.44;4918690;29;20044;-94
2022/03/18 07:34:03;;;;;;;411.70;101.80;;;;;;;15.98;32.26;94927.88;4905256;29;20123;-89
2022/03/18 07:36:28;;;;;;;354.52;97.93;;;;;;;16.01;31.83;94937.13;4904691;29;20044;-89
2022/03/18 07:38:54;;;;;;;315.55;82.82;;;;;;;16.03;31.85;94934.66;4903762;29;20044;-89
2022/03/18 07:41:20;;;;;;;199.35;60.17;;;;;;;16.02;33.09;94933.91;4903970;29;20047;-90
2022/03/18 07:43:45;;;;;;;205.30;60.30;;;;;;;16.08;32.25;94939.50;4902531;29;20111;-90
2022/03/18 07:46:10;;;;;;;175.38;53.55;;;;;;;16.16;33.38;94942.69;4904111;29;20058;-91
2022/03/18 07:48:40;;;;;;;172.20;58.55;;;;;;;16.16;33.33;94948.13;4920662;29;20094;-90
2022/03/18 07:51:05;;;;;;;160.32;62.08;;;;;;;16.15;32.51;94939.19;4926156;29;20383;-88
2022/03/18 07:53:31;;;;;;;126.40;47.38;;;;;;;16.03;32.19;94949.06;4903993;29;20058;-88
2022/03/18 07:55:56;;;;;;;268.23;64.88;;;;;;;15.92;32.16;94956.22;4904345;29;20051;-87
2022/03/18 07:58:22;;;;;;;242.80;59.33;;;;;;;15.88;32.23;94958.34;4883839;29;20059;-87
2022/03/18 08:00:47;;;;;;;230.90;63.17;;;;;;;15.89;32.15;94954.41;4916586;29;20408;-87
2022/03/18 08:03:12;;;;;;;219.32;65.07;;;;;;;15.93;32.56;94957.72;4914834;29;20055;-89
2022/03/18 08:05:39;;;;;;;224.07;62.30;;;;;;;15.94;32.28;94954.53;4882757;29;20040;-88
2022/03/18 08:08:05;;;;;;;348.02;74.68;;;;;;;15.97;32.15;94955.59;4913501;29;20643;-90
2022/03/18 08:10:30;;;;;;;675.58;134.70;;;;;;;15.97;32.33;94956.38;4913158;29;20040;-88
2022/03/18 08:12:56;;;;;;;471.15;101.45;;;;;;;16.01;32.07;94959.69;4899984;29;20570;-89
2022/03/18 08:15:21;;;;;;;380.15;86.53;;;;;;;16.02;32.33;94965.91;4899032;29;20051;-89
2022/03/18 08:17:51;;;;;;;744.60;143.05;;;;;;;16.02;32.31;94972.09;4873362;29;20142;-88
2022/03/18 08:20:17;;;;;;;1048.90;223.13;;;;;;;16.06;32.28;94969.22;4888244;29;20068;-89
2022/03/18 08:22:42;;;;;;;600.08;113.53;;;;;;;15.94;32.28;94970.16;4898525;29;20322;-89
2022/03/18 08:25:09;;;;;;;438.70;82.78;;;;;;;14.84;33.63;94977.44;4898036;29;20142;-86
2022/03/18 08:27:34;;;;;;;233.18;55.28;;;;;;;14.28;34.20;94984.59;4915761;29;20047;-87
2022/03/18 08:30:01;;;;;;;184.38;42.92;;;;;;;13.76;35.17;94984.56;4894700;29;20254;-87
2022/03/18 08:32:28;;;;;;;153.57;43.88;;;;;;;12.83;37.54;94986.84;4881974;29;20036;-87
2022/03/18 08:34:54;;;;;;;136.38;40.90;;;;;;;12.33;38.37;94993.81;4866546;29;20048;-87
2022/03/18 08:37:56;;;;;;;117.10;39.95;;;;;;;12.32;37.57;94992.31;4881272;29;20037;-88
2022/03/18 08:40:05;;;;;;;94.75;32.90;;;;;;;11.82;38.79;94999.13;4905685;29;20040;-85
2022/03/18 08:42:31;;;;;;;91.07;33.85;;;;;;;12.04;38.75;95002.00;4881859;29;20503;-86
2022/03/18 08:44:56;;;;;;;111.50;34.05;;;;;;;12.25;37.57;95012.25;4887250;29;20036;-86
2022/03/18 08:47:23;;;;;;;58.60;26.55;;;;;;;12.52;37.09;95011.84;4912150;29;20582;-86
2022/03/18 08:49:49;;;;;;;61.85;27.02;;;;;;;12.38;37.72;95012.25;4896937;29;20044;-90
2022/03/18 08:52:14;;;;;;;87.57;29.67;;;;;;;11.98;39.12;95012.59;4880690;29;20055;-90
2022/03/18 08:54:40;;;;;;;138.77;39.28;;;;;;;11.85;38.61;95024.59;4915090;29;20055;-91
2022/03/18 08:57:05;;;;;;;175.77;43.70;;;;;;;11.68;38.96;95021.16;4901037;29;20048;-88
2022/03/18 08:59:31;;;;;;;162.27;40.72;;;;;;;11.79;39.30;95018.94;4905396;29;20482;-87
2022/03/18 09:01:56;;;;;;;160.82;38.47;;;;;;;12.07;39.08;95016.66;4903089;29;20051;-89
2022/03/18 09:04:21;;;;;;;266.90;56.70;;;;;;;12.72;38.08;95019.00;4900987;29;20095;-88
2022/03/18 09:06:47;;;;;;;232.50;49.95;;;;;;;13.18;36.74;95021.06;4884156;29;20847;-88
2022/03/18 09:09:12;;;;;;;194.85;41.13;;;;;;;13.51;37.76;95018.03;4901893;29;20044;-92
2022/03/18 09:11:38;;;;;;;190.80;44.95;;;;;;;13.77;35.77;95014.03;4890134;29;20456;-88
2022/03/18 09:14:03;;;;;;;159.85;37.28;;;;;;;13.98;36.60;95026.09;4897135;29;20036;-90
2022/03/18 09:16:30;;;;;;;162.38;40.72;;;;;;;14.16;36.15;95023.50;4884839;29;20020;-90
2022/03/18 09:18:58;;;;;;;150.82;39.13;;;;;;;14.27;35.61;95026.59;4887488;29;20039;-91
2022/03/18 09:21:24;;;;;;;119.72;35.33;;;;;;;14.38;34.68;95029.69;4904818;29;20044;-89
2022/03/18 09:23:49;;;;;;;134.65;38.83;;;;;;;14.50;34.51;95030.84;4902172;29;20833;-89
2022/03/18 09:26:15;;;;;;;122.20;33.20;;;;;;;14.61;34.54;95035.88;4900548;29;20399;-92
2022/03/18 09:28:40;;;;;;;104.78;31.00;;;;;;;14.62;34.33;95034.66;4904852;29;20086;-90
2022/03/18 09:31:06;;;;;;;98.07;31.98;;;;;;;14.67;34.61;95034.84;4887868;29;20036;-89
2022/03/18 09:33:32;;;;;;;80.18;30.08;;;;;;;14.77;33.51;95034.88;4903090;29;20067;-94
2022/03/18 09:35:57;;;;;;;67.47;24.92;;;;;;;14.80;34.29;95039.44;4883829;29;20056;-89
2022/03/18 09:38:22;;;;;;;89.05;33.13;;;;;;;14.85;33.89;95036.13;4895679;29;20135;-90
2022/03/18 09:40:51;;;;;;;83.50;29.08;;;;;;;14.83;33.80;95041.25;4901890;29;20035;-91
2022/03/18 09:43:20;;;;;;;185.68;39.95;;;;;;;14.90;34.26;95049.16;4901368;29;20087;-93
2022/03/18 09:45:47;;;;;;;1999.90;640.10;;;;;;;14.95;35.04;95052.03;4885614;29;20054;-91
2022/03/18 09:48:12;;;;;;;609.13;132.90;;;;;;;14.95;34.62;95040.38;4885884;29;20036;-89
2022/03/18 09:50:39;;;;;;;467.83;96.00;;;;;;;15.01;33.78;95047.53;4884566;29;20102;-91
2022/03/18 09:53:04;;;;;;;587.15;105.65;;;;;;;15.01;34.63;95042.09;4900592;29;20040;-89
2022/03/18 09:55:35;;;;;;;424.88;106.45;;;;;;;15.08;33.60;95052.72;4917678;29;20036;-90
2022/03/18 09:58:01;;;;;;;271.17;59.58;;;;;;;15.08;33.67;95051.94;4860987;29;20041;-89
2022/03/18 10:00:26;;;;;;;259.45;55.55;;;;;;;15.09;34.59;95053.47;4846138;29;20827;-88
2022/03/18 10:03:08;;;;;;;317.95;61.47;;;;;;;15.15;33.69;95057.13;4845421;29;20045;-89
2022/03/18 10:05:33;;;;;;;174.43;42.42;;;;;;;15.15;34.30;95064.53;4844563;29;20053;-90
2022/03/18 10:07:59;;;;;;;168.40;43.28;;;;;;;15.22;33.03;95053.34;4827945;29;20033;-89
2022/03/18 10:10:25;;;;;;;590.13;124.93;;;;;;;15.21;33.58;95057.28;4841984;29;20037;-89
2022/03/18 10:12:54;;;;;;;974.65;254.73;;;;;;;15.21;33.20;95058.03;4833726;29;20583;-89
2022/03/18 10:15:22;;;;;;;723.33;186.45;;;;;;;15.19;33.93;95063.16;4843117;29;20056;-89
2022/03/18 10:17:48;;;;;;;396.98;93.43;;;;;;;15.28;32.76;95073.34;4858687;29;20438;-89
2022/03/18 10:20:22;;;;;;;434.20;95.10;;;;;;;15.25;33.15;95076.97;4858126;29;20079;-89
2022/03/18 10:22:49;;;;;;;354.02;78.13;;;;;;;15.20;33.45;95067.41;4860491;29;20104;-89
2022/03/18 10:25:34;;;;;;;317.55;71.70;;;;;;;15.20;33.81;95072.88;4861632;29;20080;-89
2022/03/18 10:27:59;;;;;;;273.02;65.78;;;;;;;15.20;32.79;95072.09;4879960;29;20097;-88
2022/03/18 10:30:26;;;;;;;203.73;50.30;;;;;;;15.17;33.62;95078.44;4897423;29;20052;-88
2022/03/18 10:32:53;;;;;;;202.55;60.78;;;;;;;15.16;33.29;95069.50;4883768;29;20097;-89
2022/03/18 10:38:34;;;;;;;90.97;31.60;;;;;;;14.96;32.56;95080.78;4901622;29;20087;-91
2022/03/18 10:41:07;;;;;;;88.35;28.92;;;;;;;14.78;32.52;95085.41;4877698;29;20048;-91
2022/03/18 10:43:53;;;;;;;88.63;30.23;;;;;;;14.73;32.29;95081.28;4887291;29;20032;-91
2022/03/18 10:46:19;;;;;;;113.35;32.92;;;;;;;14.67;32.88;95083.84;4899136;29;20040;-90
2022/03/18 10:49:01;;;;;;;62.30;23.02;;;;;;;14.65;32.48;95088.22;4882469;29;20040;-88
2022/03/18 10:51:27;;;;;;;121.82;24.30;;;;;;;14.62;33.60;95080.94;4862484;29;20068;-89
2022/03/18 10:53:56;;;;;;;61.70;22.98;;;;;;;14.71;33.07;95084.47;4873510;29;20040;-92
2022/03/18 10:56:21;;;;;;;86.57;23.55;;;;;;;14.84;33.50;95081.66;4898354;29;20064;-90
2022/03/18 10:58:47;;;;;;;56.40;21.90;;;;;;;14.87;32.80;95086.22;4897358;29;20044;-91
2022/03/18 11:01:12;;;;;;;54.00;19.85;;;;;;;14.93;33.15;95081.72;4880334;29;20036;-92
2022/03/18 11:03:38;;;;;;;50.15;19.38;;;;;;;14.98;33.51;95088.50;4879668;29;20571;-89
2022/03/18 11:06:03;;;;;;;51.08;20.70;;;;;;;14.88;32.79;95084.25;4881505;29;20037;-91
2022/03/18 11:08:42;;;;;;;450.10;82.47;;;;;;;14.91;32.75;95089.56;4898188;29;20032;-89
2022/03/18 11:11:10;;;;;;;211.98;43.95;;;;;;;14.98;32.80;95083.06;4902085;29;20040;-91
2022/03/18 11:13:49;;;;;;;355.52;52.47;;;;;;;14.97;33.33;95079.59;4914035;29;20044;-91
2022/03/18 11:16:25;;;;;;;142.05;32.22;;;;;;;15.04;32.43;95082.03;4896240;29;20092;-90
2022/03/18 11:18:50;;;;;;;79.55;21.23;;;;;;;14.87;31.90;95086.22;4896572;29;20043;-90
2022/03/18 11:21:17;;;;;;;66.45;21.13;;;;;;;14.78;31.47;95078.00;4895673;29;20041;-91
2022/03/18 11:23:44;;;;;;;78.72;19.85;;;;;;;14.75;30.61;95082.34;4899120;29;20571;-89
2022/03/18 11:26:10;;;;;;;124.30;24.27;;;;;;;14.71;31.67;95075.56;4883521;29;20058;-90
2022/03/18 11:28:36;;;;;;;82.47;21.48;;;;;;;14.84;31.30;95086.34;4899249;29;20456;-90
2022/03/18 11:31:03;;;;;;;70.28;19.33;;;;;;;14.71;31.11;95075.56;4898814;29;20047;-90
2022/03/18 11:33:29;;;;;;;56.50;18.83;;;;;;;14.73;31.45;95075.84;4898511;29;20103;-89
2022/03/18 11:35:54;;;;;;;147.45;29.85;;;;;;;14.73;31.74;95070.41;4898405;29;20036;-89
2022/03/18 11:38:26;;;;;;;110.00;30.45;;;;;;;14.79;31.50;95076.03;4914689;29;20055;-89
2022/03/18 11:40:59;;;;;;;98.63;25.05;;;;;;;14.87;31.67;95077.28;4881732;29;20457;-88
2022/03/18 11:43:32;;;;;;;63.38;18.83;;;;;;;14.86;31.38;95083.94;4894609;29;20115;-88
2022/03/18 11:46:12;;;;;;;73.88;22.65;;;;;;;14.88;31.45;95076.84;4903091;29;20116;-91